Time;durP1;ratioP1;P1;durP2;ratioP2;P2;SDS_P1;SDS_P2;PMS_P1;PMS_P2;Temp;Humidity;BMP_temperature;BMP_pressure;BME280_temperature;BME280_humidity;BME280_pressure;Samples;Min_cycle;Max_cycle;Signal;HPM_P1;HPM_P2
2021/09/20 07:06:16;;;;;;;2.28;1.15;;;11.50;75.60;;;;;;5947646;23;20027;-68
2021/09/20 07:08:42;;;;;;;3.33;1.40;;;11.50;75.80;;;;;;4921083;29;20036;-69
2021/09/20 07:11:07;;;;;;;2.30;1.17;;;11.50;76.30;;;;;;4934602;29;20063;-71
2021/09/20 07:13:33;;;;;;;3.47;1.20;;;11.50;76.00;;;;;;4930542;29;20367;-70
2021/09/20 07:15:58;;;;;;;2.88;1.00;;;11.70;75.50;;;;;;4934114;29;20046;-69
2021/09/20 07:18:24;;;;;;;2.45;1.20;;;11.70;75.40;;;;;;4935663;29;20091;-68
2021/09/20 07:20:50;;;;;;;2.83;1.30;;;11.80;74.40;;;;;;4953579;29;20027;-70
2021/09/20 07:23:16;;;;;;;2.72;1.40;;;11.80;74.50;;;;;;4953561;29;20355;-70
2021/09/20 07:25:42;;;;;;;2.40;1.25;;;11.90;74.10;;;;;;4943670;29;20770;-70
2021/09/20 07:28:08;;;;;;;2.75;1.30;;;11.90;74.50;;;;;;4931780;29;20032;-71
2021/09/20 07:30:34;;;;;;;2.60;1.25;;;12.00;73.60;;;;;;4933347;29;20035;-72
2021/09/20 07:32:59;;;;;;;2.25;1.20;;;12.00;73.70;;;;;;4916659;29;20380;-71
2021/09/20 07:35:26;;;;;;;3.20;1.30;;;11.90;73.70;;;;;;4933461;29;20051;-71
2021/09/20 07:37:55;;;;;;;2.67;1.40;;;12.00;74.00;;;;;;4933652;29;20648;-72
2021/09/20 07:40:23;;;;;;;4.72;1.85;;;12.00;74.00;;;;;;4917175;29;20032;-71
2021/09/20 07:42:51;;;;;;;3.70;1.52;;;12.00;74.00;;;;;;4933389;29;20051;-70
2021/09/20 07:45:17;;;;;;;3.75;1.63;;;12.10;74.20;;;;;;4916358;29;20450;-71
2021/09/20 07:47:43;;;;;;;4.28;2.10;;;12.10;74.00;;;;;;4932911;29;20111;-71
2021/09/20 07:50:10;;;;;;;4.28;1.88;;;12.20;73.60;;;;;;4933537;29;20578;-70
2021/09/20 07:52:39;;;;;;;4.03;1.80;;;12.10;73.60;;;;;;4933637;29;20038;-71
2021/09/20 07:55:05;;;;;;;4.53;2.00;;;12.10;73.40;;;;;;4933226;29;20024;-71
2021/09/20 07:57:31;;;;;;;3.92;1.65;;;12.00;74.00;;;;;;4932792;29;20020;-71
2021/09/20 07:59:57;;;;;;;2.17;1.30;;;12.10;73.80;;;;;;4933607;29;20497;-71
2021/09/20 08:02:23;;;;;;;2.47;1.30;;;12.20;73.20;;;;;;4933341;29;20039;-71
2021/09/20 08:04:49;;;;;;;2.40;1.27;;;12.10;73.50;;;;;;4933316;29;20124;-72
2021/09/20 08:07:14;;;;;;;3.83;1.70;;;12.10;73.50;;;;;;4932549;29;20044;-70
2021/09/20 08:09:40;;;;;;;2.28;1.23;;;12.10;73.60;;;;;;4933712;29;20023;-70
2021/09/20 08:12:06;;;;;;;2.38;1.27;;;12.10;73.40;;;;;;4931884;29;20035;-70
2021/09/20 08:14:32;;;;;;;3.40;1.40;;;12.10;73.50;;;;;;4926279;29;20123;-70
2021/09/20 08:16:57;;;;;;;2.35;1.20;;;12.20;73.20;;;;;;4933241;29;20495;-69
2021/09/20 08:19:23;;;;;;;2.72;1.30;;;12.10;73.20;;;;;;4933329;29;20036;-70
2021/09/20 08:21:49;;;;;;;3.22;1.50;;;12.10;73.20;;;;;;4933455;29;20079;-70
2021/09/20 08:24:16;;;;;;;4.75;1.90;;;12.10;73.40;;;;;;4933006;29;20398;-69
2021/09/20 08:26:42;;;;;;;3.63;1.92;;;12.20;73.40;;;;;;4932825;29;20027;-69
2021/09/20 08:29:08;;;;;;;3.28;1.67;;;12.30;73.20;;;;;;4933007;29;20502;-69
2021/09/20 08:31:34;;;;;;;4.30;1.55;;;12.30;73.20;;;;;;4933058;29;20378;-69
2021/09/20 08:34:00;;;;;;;5.07;1.60;;;12.20;74.00;;;;;;4915585;29;20056;-70
2021/09/20 08:36:25;;;;;;;4.90;1.30;;;12.30;73.20;;;;;;4934310;29;20031;-69
2021/09/20 08:38:51;;;;;;;3.58;1.70;;;12.20;73.50;;;;;;4936715;29;20110;-69
2021/09/20 08:41:17;;;;;;;3.63;1.70;;;12.20;73.60;;;;;;4936372;29;20402;-70
2021/09/20 08:43:44;;;;;;;2.33;1.20;;;12.30;73.00;;;;;;4936421;29;20087;-69
2021/09/20 08:46:10;;;;;;;3.33;1.45;;;12.40;72.80;;;;;;4936351;29;20051;-69
2021/09/20 08:48:41;;;;;;;2.03;1.13;;;12.40;72.50;;;;;;4936449;29;20472;-68
2021/09/20 08:51:07;;;;;;;2.40;1.20;;;12.30;72.50;;;;;;4935883;29;20530;-69
2021/09/20 08:53:34;;;;;;;2.63;1.35;;;12.30;72.60;;;;;;4935134;29;20066;-69
2021/09/20 08:56:00;;;;;;;4.80;1.58;;;12.30;72.50;;;;;;4935578;29;20074;-69
2021/09/20 08:58:27;;;;;;;3.08;1.38;;;12.40;72.50;;;;;;4934579;29;20027;-69
2021/09/20 09:00:53;;;;;;;3.38;1.50;;;12.40;72.50;;;;;;4935189;29;20106;-69
2021/09/20 09:03:24;;;;;;;3.83;1.52;;;12.40;72.70;;;;;;4935417;29;20451;-69
2021/09/20 09:05:50;;;;;;;3.70;1.60;;;12.40;72.20;;;;;;4936073;29;20442;-69
2021/09/20 09:08:20;;;;;;;3.30;1.73;;;12.50;72.30;;;;;;4935652;29;20073;-69
2021/09/20 09:10:58;;;;;;;2.97;1.38;;;12.50;72.30;;;;;;4936401;29;20031;-69
2021/09/20 09:13:34;;;;;;;2.67;1.48;;;12.50;72.20;;;;;;4936459;29;20055;-69
2021/09/20 09:16:21;;;;;;;3.13;1.50;;;12.60;71.90;;;;;;4936122;29;20046;-69
2021/09/20 09:19:03;;;;;;;3.05;1.60;;;12.50;72.30;;;;;;4936282;29;20375;-70
2021/09/20 09:21:34;;;;;;;3.08;1.60;;;12.50;72.20;;;;;;4936020;29;20023;-70
2021/09/20 09:24:10;;;;;;;4.03;1.70;;;12.60;72.00;;;;;;4935605;29;20031;-70
2021/09/20 09:26:37;;;;;;;3.67;1.70;;;12.60;72.50;;;;;;4936162;29;20028;-69
2021/09/20 09:29:11;;;;;;;3.50;1.70;;;12.60;72.20;;;;;;4935523;29;20032;-69
2021/09/20 09:31:39;;;;;;;3.13;1.50;;;12.60;71.80;;;;;;4935971;29;20062;-70
2021/09/20 09:34:26;;;;;;;4.07;1.70;;;12.60;72.30;;;;;;4935339;29;20032;-69
2021/09/20 09:37:06;;;;;;;2.80;1.60;;;12.60;72.10;;;;;;4935989;29;20748;-70
2021/09/20 09:39:32;;;;;;;4.13;1.83;;;12.60;71.70;;;;;;4944934;29;20031;-69
2021/09/20 09:41:57;;;;;;;3.28;1.50;;;12.60;71.70;;;;;;4934664;29;20096;-69
2021/09/20 09:44:29;;;;;;;3.22;1.60;;;12.60;72.30;;;;;;4935992;29;20027;-69
2021/09/20 09:46:55;;;;;;;3.30;1.60;;;12.70;71.90;;;;;;4935284;29;20051;-70
2021/09/20 09:49:22;;;;;;;5.60;1.80;;;12.70;71.60;;;;;;4935808;29;20424;-69
2021/09/20 09:52:11;;;;;;;6.10;2.42;;;12.70;71.60;;;;;;4936004;29;20059;-70
2021/09/20 09:54:41;;;;;;;4.15;1.92;;;12.80;71.70;;;;;;4935834;29;20027;-70
2021/09/20 09:57:11;;;;;;;4.40;2.00;;;12.80;71.40;;;;;;4918949;29;20111;-69
2021/09/20 09:59:38;;;;;;;4.88;1.70;;;12.90;71.20;;;;;;4936000;29;20770;-69
2021/09/20 10:02:27;;;;;;;5.10;2.40;;;12.90;71.20;;;;;;4936097;29;20035;-71
2021/09/20 10:05:01;;;;;;;3.35;1.63;;;13.00;70.70;;;;;;4935985;29;20027;-69
2021/09/20 10:07:35;;;;;;;3.55;1.80;;;12.90;70.80;;;;;;4936058;29;20052;-70
2021/09/20 10:10:08;;;;;;;4.00;1.80;;;13.00;70.80;;;;;;4931903;29;20023;-70
2021/09/20 10:12:34;;;;;;;4.63;2.20;;;13.10;71.10;;;;;;4934088;29;20130;-69
2021/09/20 10:15:01;;;;;;;3.60;1.85;;;13.10;71.10;;;;;;4934337;29;20035;-68
2021/09/20 10:17:29;;;;;;;4.15;1.88;;;13.30;69.70;;;;;;4934091;29;20032;-70
2021/09/20 10:19:57;;;;;;;3.88;1.70;;;13.30;70.00;;;;;;4934795;29;20756;-70
2021/09/20 10:22:23;;;;;;;3.05;1.50;;;13.20;70.40;;;;;;4934114;29;20027;-71
2021/09/20 10:24:50;;;;;;;3.08;1.48;;;13.20;70.30;;;;;;4933818;29;20035;-69
2021/09/20 10:27:20;;;;;;;2.40;1.40;;;13.20;70.20;;;;;;4932265;29;20895;-70
2021/09/20 10:30:00;;;;;;;3.33;1.50;;;13.20;70.30;;;;;;4929880;29;20059;-69
2021/09/20 10:32:27;;;;;;;3.15;1.50;;;13.30;70.10;;;;;;4933503;29;20420;-69
2021/09/20 10:35:28;;;;;;;4.82;1.80;;;13.40;70.10;;;;;;4933669;29;20479;-68
2021/09/20 10:38:12;;;;;;;2.78;1.50;;;13.40;69.80;;;;;;4934426;29;20032;-69
2021/09/20 10:40:37;;;;;;;3.28;1.70;;;13.50;69.00;;;;;;4934647;29;20024;-69
2021/09/20 10:43:05;;;;;;;3.13;1.70;;;13.50;69.10;;;;;;4933516;29;20078;-70
2021/09/20 10:45:44;;;;;;;3.08;1.55;;;13.50;69.30;;;;;;4934491;29;20142;-69
2021/09/20 10:48:17;;;;;;;4.55;1.60;;;13.50;69.00;;;;;;4933117;29;20046;-68
2021/09/20 10:50:43;;;;;;;3.33;1.50;;;13.50;69.10;;;;;;4933863;29;20031;-69
2021/09/20 10:53:22;;;;;;;4.10;1.70;;;13.50;69.40;;;;;;4933707;29;20074;-69
2021/09/20 10:56:03;;;;;;;4.22;1.85;;;13.50;68.90;;;;;;4933255;29;20039;-69
2021/09/20 10:58:33;;;;;;;3.50;1.70;;;13.50;68.60;;;;;;4933472;29;20032;-68
2021/09/20 11:01:11;;;;;;;2.45;1.45;;;13.60;68.50;;;;;;4933300;29;20024;-70
2021/09/20 11:03:52;;;;;;;2.63;1.40;;;13.60;68.80;;;;;;4933926;29;20039;-69
2021/09/20 11:06:36;;;;;;;3.50;1.80;;;13.70;68.40;;;;;;4933675;29;20102;-70
2021/09/20 11:09:08;;;;;;;2.55;1.50;;;13.80;68.40;;;;;;4916496;29;20036;-69
2021/09/20 11:11:37;;;;;;;3.65;1.60;;;13.90;68.30;;;;;;4922592;29;20032;-68
2021/09/20 11:14:04;;;;;;;3.70;1.55;;;13.90;68.30;;;;;;4933317;29;20028;-69
2021/09/20 11:16:45;;;;;;;3.10;1.45;;;14.00;67.90;;;;;;4917062;29;20486;-69
2021/09/20 11:22:09;;;;;;;5.22;2.33;;;14.00;68.00;;;;;;4934113;29;20752;-69
2021/09/20 11:24:36;;;;;;;2.88;1.45;;;14.10;68.20;;;;;;4932373;29;20510;-70
2021/09/20 11:27:03;;;;;;;3.05;1.60;;;14.20;68.40;;;;;;4933828;29;20023;-71
2021/09/20 11:29:29;;;;;;;3.75;1.90;;;14.30;67.60;;;;;;4933768;29;20039;-69
2021/09/20 11:31:56;;;;;;;3.28;1.67;;;14.40;67.40;;;;;;4916696;29;20078;-69
2021/09/20 11:34:41;;;;;;;3.42;1.80;;;14.30;67.50;;;;;;4933967;29;20058;-69
2021/09/20 11:37:31;;;;;;;3.80;1.90;;;14.20;68.20;;;;;;4933420;29;20027;-69
2021/09/20 11:39:58;;;;;;;3.45;1.60;;;14.30;68.60;;;;;;4915043;29;20526;-69
2021/09/20 11:42:34;;;;;;;4.03;1.63;;;14.20;69.00;;;;;;4926820;29;20082;-64
2021/09/20 11:45:00;;;;;;;3.78;1.90;;;14.20;69.00;;;;;;4933698;29;20031;-69
2021/09/20 11:47:28;;;;;;;3.47;1.85;;;14.10;68.90;;;;;;4933736;29;20032;-69
2021/09/20 11:50:12;;;;;;;4.90;2.03;;;14.10;69.40;;;;;;4916357;29;20513;-69
2021/09/20 11:52:42;;;;;;;3.70;1.90;;;14.10;69.30;;;;;;4940512;29;20042;-69
2021/09/20 11:55:22;;;;;;;4.88;2.22;;;14.00;69.30;;;;;;4945179;29;20032;-68
2021/09/20 11:57:51;;;;;;;4.97;2.00;;;13.80;69.90;;;;;;4933334;29;20036;-68
2021/09/20 12:00:18;;;;;;;4.95;1.95;;;13.70;70.40;;;;;;4933000;29;20395;-70
2021/09/20 12:02:49;;;;;;;3.90;1.98;;;13.60;70.70;;;;;;4933503;29;20023;-64
2021/09/20 12:05:18;;;;;;;4.03;2.10;;;13.50;71.60;;;;;;4933780;29;20020;-65
2021/09/20 12:07:50;;;;;;;4.28;2.38;;;13.50;71.90;;;;;;4933536;29;20155;-63
2021/09/20 12:10:17;;;;;;;5.03;2.40;;;13.40;72.00;;;;;;4932365;29;20039;-68
2021/09/20 12:12:48;;;;;;;4.07;2.13;;;13.50;72.10;;;;;;4936979;29;20086;-68
2021/09/20 12:15:15;;;;;;;5.68;2.10;;;13.50;71.80;;;;;;4936718;29;20554;-69
2021/09/20 12:18:05;;;;;;;5.20;2.13;;;13.50;71.80;;;;;;4933859;29;20035;-68
2021/09/20 12:20:36;;;;;;;5.05;2.10;;;13.60;71.60;;;;;;4925168;29;20094;-68
2021/09/20 12:23:24;;;;;;;4.32;2.28;;;13.60;72.10;;;;;;4935167;29;20056;-68
2021/09/20 12:25:56;;;;;;;4.50;2.17;;;13.50;71.90;;;;;;4935026;29;20028;-69
2021/09/20 12:28:37;;;;;;;5.00;2.70;;;13.50;72.40;;;;;;4935541;29;20036;-69
2021/09/20 12:31:17;;;;;;;4.40;2.33;;;13.60;72.30;;;;;;4936675;29;20367;-68
2021/09/20 12:33:57;;;;;;;5.28;2.30;;;13.70;72.40;;;;;;4937325;29;20493;-68
2021/09/20 12:36:45;;;;;;;4.82;2.40;;;13.80;72.50;;;;;;4936067;29;20415;-68
2021/09/20 12:39:22;;;;;;;4.30;2.10;;;14.00;71.80;;;;;;4936817;29;20079;-68
2021/09/20 12:41:57;;;;;;;4.20;1.80;;;14.20;71.20;;;;;;4936858;29;20546;-67
2021/09/20 12:44:38;;;;;;;4.25;2.20;;;14.30;70.30;;;;;;4937015;29;20034;-68
2021/09/20 12:47:05;;;;;;;4.20;2.08;;;14.60;69.10;;;;;;4937061;29;20051;-69
2021/09/20 12:49:31;;;;;;;4.00;2.17;;;14.50;68.80;;;;;;4936893;29;20450;-68
2021/09/20 12:51:57;;;;;;;4.10;1.92;;;14.30;68.90;;;;;;4936813;29;20055;-68
2021/09/20 12:54:26;;;;;;;4.75;2.20;;;14.30;69.30;;;;;;4936771;29;20074;-68
2021/09/20 12:56:54;;;;;;;5.80;2.25;;;14.20;69.70;;;;;;4936789;29;20038;-68
2021/09/20 12:59:35;;;;;;;3.72;1.95;;;14.10;70.20;;;;;;4936696;29;20028;-68
2021/09/20 13:02:09;;;;;;;4.75;2.03;;;14.00;70.60;;;;;;4936748;29;20087;-68
2021/09/20 13:04:39;;;;;;;3.78;2.00;;;14.10;70.50;;;;;;4936586;29;20035;-68
2021/09/20 13:07:10;;;;;;;2.88;1.55;;;14.10;70.30;;;;;;4936633;29;20451;-67
2021/09/20 13:09:38;;;;;;;4.57;1.92;;;14.10;70.20;;;;;;4936625;29;20059;-68
2021/09/20 13:12:15;;;;;;;3.25;1.60;;;14.10;70.30;;;;;;4936453;29;20114;-68
2021/09/20 13:14:55;;;;;;;3.88;1.70;;;14.10;70.00;;;;;;4919442;29;20024;-68
2021/09/20 13:17:30;;;;;;;3.53;1.70;;;14.00;70.50;;;;;;4937193;29;20425;-68
2021/09/20 13:20:09;;;;;;;3.33;1.52;;;14.00;70.50;;;;;;4936333;29;20116;-68
2021/09/20 13:22:53;;;;;;;3.20;1.45;;;13.90;70.80;;;;;;4935337;29;20107;-68
2021/09/20 13:25:27;;;;;;;3.35;1.70;;;13.80;71.00;;;;;;4936317;29;20020;-68
2021/09/20 13:28:14;;;;;;;2.53;1.30;;;13.80;71.20;;;;;;4936413;29;20103;-68
2021/09/20 13:30:48;;;;;;;3.90;1.70;;;13.80;71.40;;;;;;4936545;29;20529;-68
2021/09/20 13:33:16;;;;;;;3.28;1.60;;;13.80;71.70;;;;;;4936230;29;20567;-67
2021/09/20 13:35:45;;;;;;;4.18;1.60;;;13.70;71.80;;;;;;4936212;29;20055;-68
2021/09/20 13:38:12;;;;;;;3.63;1.80;;;13.70;71.90;;;;;;4936103;29;20027;-68
2021/09/20 13:40:38;;;;;;;3.72;1.70;;;13.70;72.30;;;;;;4935988;29;20063;-68
2021/09/20 13:43:05;;;;;;;3.60;1.70;;;13.60;72.60;;;;;;4935920;29;20390;-68
2021/09/20 13:45:31;;;;;;;3.35;1.70;;;13.60;72.70;;;;;;4936009;29;20020;-68
2021/09/20 13:48:03;;;;;;;4.50;1.90;;;13.70;72.80;;;;;;4935868;29;20136;-67
2021/09/20 13:50:29;;;;;;;4.13;1.70;;;13.70;72.90;;;;;;4919071;29;20146;-69
2021/09/20 13:52:55;;;;;;;2.28;1.30;;;13.60;73.50;;;;;;4935664;29;20395;-68
2021/09/20 13:55:21;;;;;;;3.17;1.35;;;13.50;73.00;;;;;;4935848;29;20031;-68
2021/09/20 13:57:47;;;;;;;4.20;1.40;;;13.50;73.40;;;;;;4935397;29;20032;-68
2021/09/20 14:00:13;;;;;;;3.13;1.23;;;13.40;73.60;;;;;;4935396;29;20391;-70
2021/09/20 14:02:40;;;;;;;2.63;1.40;;;13.40;73.70;;;;;;4935616;29;20028;-67
2021/09/20 14:05:07;;;;;;;2.75;1.45;;;13.40;73.60;;;;;;4935188;29;20450;-68
2021/09/20 14:07:33;;;;;;;3.40;1.40;;;13.50;73.60;;;;;;4934948;29;20550;-68
2021/09/20 14:09:59;;;;;;;2.65;1.42;;;13.40;73.80;;;;;;4935375;29;20031;-67
2021/09/20 14:12:24;;;;;;;3.47;1.70;;;13.40;73.80;;;;;;4935065;29;20043;-69
2021/09/20 14:14:50;;;;;;;4.05;1.70;;;13.40;74.20;;;;;;4934849;29;20032;-68
2021/09/20 14:17:16;;;;;;;2.90;1.55;;;13.30;74.40;;;;;;4935293;29;20102;-69
2021/09/20 14:19:41;;;;;;;3.83;1.60;;;13.40;74.50;;;;;;4935147;29;20028;-69
2021/09/20 14:22:09;;;;;;;4.10;1.70;;;13.40;74.40;;;;;;4935291;29;20483;-68
2021/09/20 14:24:36;;;;;;;4.75;1.90;;;13.50;74.40;;;;;;4934899;29;20123;-68
2021/09/20 14:27:03;;;;;;;3.53;1.80;;;13.40;74.30;;;;;;4934538;29;20031;-66
2021/09/20 14:29:30;;;;;;;3.53;1.63;;;13.40;74.50;;;;;;4934996;29;20263;-68
2021/09/20 14:31:55;;;;;;;3.65;1.63;;;13.40;74.70;;;;;;4934976;29;20554;-68
2021/09/20 14:34:21;;;;;;;4.65;1.90;;;13.30;75.00;;;;;;4934614;29;20046;-68
2021/09/20 14:36:47;;;;;;;5.13;1.85;;;13.30;75.10;;;;;;4934941;29;20111;-68
2021/09/20 14:39:12;;;;;;;3.85;1.80;;;13.30;75.30;;;;;;4935005;29;20035;-68
2021/09/20 14:41:38;;;;;;;4.55;2.15;;;13.30;75.50;;;;;;4934752;29;20031;-68
2021/09/20 14:44:04;;;;;;;4.05;1.90;;;13.30;75.60;;;;;;4934557;29;20415;-68
2021/09/20 14:46:30;;;;;;;3.90;2.03;;;13.20;75.70;;;;;;4934572;29;20028;-67
2021/09/20 14:48:56;;;;;;;3.67;1.80;;;13.30;75.90;;;;;;4933551;29;20099;-67
2021/09/20 14:51:23;;;;;;;4.22;1.80;;;13.20;75.90;;;;;;4933931;29;20032;-69
2021/09/20 14:53:48;;;;;;;5.28;2.03;;;13.30;76.20;;;;;;4934515;29;20034;-69
2021/09/20 14:56:14;;;;;;;3.60;1.88;;;13.30;76.40;;;;;;4934770;29;20110;-67
2021/09/20 14:58:40;;;;;;;4.35;2.05;;;13.30;76.50;;;;;;4933855;29;20071;-67
2021/09/20 15:01:07;;;;;;;4.85;2.08;;;13.20;76.60;;;;;;4932956;29;20028;-67
2021/09/20 15:03:37;;;;;;;6.53;2.40;;;13.30;76.80;;;;;;4934176;29;20075;-66
2021/09/20 15:06:04;;;;;;;3.92;2.00;;;13.30;76.70;;;;;;4917540;29;20382;-67
2021/09/20 15:08:34;;;;;;;4.63;2.10;;;13.20;76.70;;;;;;4928158;29;20052;-67
2021/09/20 15:11:00;;;;;;;4.72;1.83;;;13.20;76.80;;;;;;4930321;29;20036;-67
2021/09/20 15:13:26;;;;;;;3.78;1.98;;;13.20;77.00;;;;;;4932140;29;20083;-68
2021/09/20 15:15:53;;;;;;;3.58;1.77;;;13.10;77.10;;;;;;4933008;29;20040;-67
2021/09/20 15:18:18;;;;;;;4.68;1.75;;;13.00;77.30;;;;;;4933944;29;20040;-68
2021/09/20 15:20:44;;;;;;;5.07;1.92;;;13.10;77.50;;;;;;4918629;29;20055;-68
2021/09/20 15:23:10;;;;;;;3.15;1.55;;;13.10;77.40;;;;;;4916556;29;20040;-67
2021/09/20 15:25:36;;;;;;;3.10;1.42;;;13.00;77.60;;;;;;4933439;29;20032;-68
2021/09/20 15:28:02;;;;;;;3.97;1.50;;;13.00;77.90;;;;;;4933913;29;20031;-68
2021/09/20 15:30:27;;;;;;;3.33;1.45;;;12.90;78.10;;;;;;4933926;29;20038;-69
2021/09/20 15:32:53;;;;;;;4.38;1.58;;;12.90;78.20;;;;;;4933604;29;20090;-68
2021/09/20 15:35:20;;;;;;;3.33;1.52;;;12.90;78.50;;;;;;4933373;29;20034;-68
2021/09/20 15:37:48;;;;;;;3.45;1.70;;;12.90;78.50;;;;;;4934101;29;20087;-69
2021/09/20 15:40:17;;;;;;;3.65;1.50;;;12.90;78.60;;;;;;4933717;29;20032;-68
2021/09/20 15:42:51;;;;;;;4.32;1.65;;;12.90;78.60;;;;;;4933406;29;20165;-69
2021/09/20 15:45:19;;;;;;;3.60;1.80;;;12.90;78.70;;;;;;4934683;29;20028;-68
2021/09/20 15:47:45;;;;;;;3.80;1.90;;;12.80;78.90;;;;;;4936878;29;20111;-68
2021/09/20 15:50:12;;;;;;;4.38;1.80;;;12.80;79.00;;;;;;4937147;29;20035;-67
2021/09/20 15:52:40;;;;;;;4.93;2.22;;;12.80;79.00;;;;;;4936959;29;20087;-68
2021/09/20 15:55:06;;;;;;;5.03;2.20;;;12.80;79.00;;;;;;4937474;29;20024;-68
2021/09/20 15:57:32;;;;;;;4.75;2.10;;;12.90;79.20;;;;;;4936758;29;20042;-68
2021/09/20 15:59:57;;;;;;;4.72;1.98;;;12.80;79.30;;;;;;4937093;29;20028;-69
2021/09/20 16:02:23;;;;;;;5.50;2.20;;;12.80;79.50;;;;;;4920379;29;20032;-68
2021/09/20 16:04:49;;;;;;;4.57;2.05;;;12.70;79.80;;;;;;4937734;29;20047;-67
2021/09/20 16:07:15;;;;;;;3.75;1.83;;;12.70;79.80;;;;;;4937374;29;20052;-68
2021/09/20 16:09:42;;;;;;;4.00;1.90;;;12.70;80.10;;;;;;4937294;29;20027;-68
2021/09/20 16:12:09;;;;;;;4.03;1.90;;;12.70;80.40;;;;;;4937129;29;20027;-69
2021/09/20 16:14:34;;;;;;;4.18;1.77;;;12.60;80.50;;;;;;4937657;29;20062;-68
2021/09/20 16:17:00;;;;;;;4.35;1.88;;;12.60;80.70;;;;;;4937249;29;20023;-68
2021/09/20 16:19:26;;;;;;;4.22;2.00;;;12.60;80.90;;;;;;4937477;29;20042;-69
2021/09/20 16:21:51;;;;;;;4.63;2.10;;;12.60;81.10;;;;;;4933834;29;20024;-69
2021/09/20 16:24:17;;;;;;;4.68;1.80;;;12.60;81.10;;;;;;4933682;29;20111;-68
2021/09/20 16:26:43;;;;;;;5.38;2.30;;;12.60;81.40;;;;;;4937291;29;20098;-68
2021/09/20 16:29:08;;;;;;;4.20;2.00;;;12.60;81.70;;;;;;4936235;29;20464;-68
2021/09/20 16:31:34;;;;;;;5.63;2.28;;;12.50;81.70;;;;;;4937073;29;20497;-69
2021/09/20 16:34:00;;;;;;;5.38;2.65;;;12.50;81.90;;;;;;4936420;29;20040;-68
2021/09/20 16:36:27;;;;;;;6.80;3.10;;;12.50;82.30;;;;;;4942226;29;20122;-68
2021/09/20 16:38:53;;;;;;;5.07;2.60;;;12.50;82.40;;;;;;4930659;29;20023;-68
2021/09/20 16:41:19;;;;;;;4.60;2.30;;;12.50;82.70;;;;;;4936991;29;20438;-69
2021/09/20 16:43:45;;;;;;;4.13;2.22;;;12.40;83.00;;;;;;4936934;29;20020;-68
2021/09/20 16:46:11;;;;;;;4.65;2.40;;;12.40;83.80;;;;;;4936839;29;20093;-68
2021/09/20 16:48:37;;;;;;;5.70;3.03;;;12.30;84.30;;;;;;4936856;29;20028;-69
2021/09/20 16:51:03;;;;;;;5.65;2.90;;;12.20;85.00;;;;;;4936405;29;20059;-69
2021/09/20 16:53:29;;;;;;;6.70;2.80;;;12.10;85.50;;;;;;4919924;29;20086;-68
2021/09/20 16:55:55;;;;;;;5.60;2.72;;;12.10;85.80;;;;;;4936738;28;20398;-68
2021/09/20 16:58:21;;;;;;;7.78;4.63;;;12.00;86.10;;;;;;4936619;29;20032;-68
2021/09/20 17:00:47;;;;;;;6.53;3.55;;;12.00;86.40;;;;;;4936353;29;20055;-69
2021/09/20 17:03:13;;;;;;;5.70;2.70;;;11.90;86.90;;;;;;4936050;29;20055;-68
2021/09/20 17:05:39;;;;;;;6.00;3.03;;;11.90;87.20;;;;;;4936148;29;20471;-68
2021/09/20 17:08:06;;;;;;;5.68;3.00;;;11.80;87.50;;;;;;4935856;29;20068;-69
2021/09/20 17:10:32;;;;;;;6.25;2.88;;;11.80;87.90;;;;;;4936315;29;20031;-67
2021/09/20 17:12:59;;;;;;;5.70;3.10;;;11.80;88.20;;;;;;4936301;29;20059;-69
2021/09/20 17:15:25;;;;;;;6.30;3.78;;;11.80;88.30;;;;;;4935872;29;20074;-68
2021/09/20 17:17:51;;;;;;;7.10;3.47;;;11.80;88.80;;;;;;4936113;29;20034;-68
2021/09/20 17:20:18;;;;;;;7.25;3.28;;;11.80;89.30;;;;;;4936486;29;20385;-68
2021/09/20 17:22:44;;;;;;;5.70;3.10;;;11.70;89.50;;;;;;4936168;29;20039;-69
2021/09/20 17:25:11;;;;;;;5.95;3.25;;;11.70;89.80;;;;;;4936588;29;20032;-67
2021/09/20 17:27:37;;;;;;;6.57;3.30;;;11.60;89.90;;;;;;4936204;29;20143;-69
2021/09/20 17:30:04;;;;;;;7.03;3.30;;;11.60;90.10;;;;;;4935499;29;20175;-68
2021/09/20 17:32:30;;;;;;;5.90;3.50;;;11.60;90.10;;;;;;4936043;29;20027;-70
2021/09/20 17:35:01;;;;;;;6.55;3.85;;;11.50;90.20;;;;;;4935863;29;20479;-69
2021/09/20 17:37:27;;;;;;;6.00;3.47;;;11.50;90.30;;;;;;4936172;29;20027;-67
2021/09/20 17:39:52;;;;;;;5.20;3.05;;;11.50;90.30;;;;;;4918742;29;20510;-68
2021/09/20 17:42:19;;;;;;;5.63;3.28;;;11.50;90.20;;;;;;4936242;29;20031;-69
2021/09/20 17:44:44;;;;;;;5.30;3.08;;;11.50;90.10;;;;;;4936283;29;20019;-69
2021/09/20 17:47:11;;;;;;;6.53;3.20;;;11.50;90.00;;;;;;4935558;29;20024;-68
2021/09/20 17:49:37;;;;;;;5.43;3.25;;;11.50;90.00;;;;;;4935712;29;20095;-69
2021/09/20 17:52:03;;;;;;;5.45;3.17;;;11.50;90.00;;;;;;4935443;29;20031;-69
2021/09/20 17:54:29;;;;;;;5.20;2.90;;;11.50;90.00;;;;;;4918310;29;20040;-69
2021/09/20 17:56:55;;;;;;;5.10;3.00;;;11.50;89.40;;;;;;4934931;29;20387;-68
2021/09/20 17:59:20;;;;;;;5.28;3.10;;;11.60;89.30;;;;;;4935245;29;20032;-68
2021/09/20 18:01:46;;;;;;;5.07;3.00;;;11.50;89.20;;;;;;4935760;29;20379;-68
2021/09/20 18:04:12;;;;;;;5.78;2.92;;;11.60;89.20;;;;;;4935179;29;20032;-68
2021/09/20 18:06:38;;;;;;;6.47;3.20;;;11.50;89.00;;;;;;4914801;29;20534;-68
2021/09/20 18:09:08;;;;;;;5.47;3.00;;;11.60;89.00;;;;;;4916236;29;20146;-70
2021/09/20 18:11:34;;;;;;;5.60;3.30;;;11.60;88.90;;;;;;4931666;29;20024;-68
2021/09/20 18:14:00;;;;;;;5.78;3.20;;;11.60;88.60;;;;;;4935111;29;20035;-68
2021/09/20 18:16:26;;;;;;;5.30;3.10;;;11.60;88.40;;;;;;4935479;29;20099;-69
2021/09/20 18:18:54;;;;;;;5.18;3.00;;;11.60;88.30;;;;;;4934977;29;20393;-68
2021/09/20 18:21:21;;;;;;;7.68;3.30;;;11.60;88.20;;;;;;4917983;29;20028;-69
2021/09/20 18:23:47;;;;;;;6.05;3.20;;;11.60;87.90;;;;;;4935047;29;20056;-68
2021/09/20 18:26:14;;;;;;;5.93;3.00;;;11.70;88.00;;;;;;4935367;29;20153;-69
2021/09/20 18:28:41;;;;;;;5.95;3.10;;;11.60;87.90;;;;;;4918144;29;20059;-68
2021/09/20 18:31:08;;;;;;;6.03;3.30;;;11.70;87.80;;;;;;4935116;29;20036;-69
2021/09/20 18:33:36;;;;;;;6.32;3.72;;;11.70;87.40;;;;;;4934951;29;20042;-69
2021/09/20 18:36:02;;;;;;;6.38;3.63;;;11.70;87.20;;;;;;4935164;29;20471;-69
2021/09/20 18:38:29;;;;;;;5.85;3.50;;;11.70;87.30;;;;;;4934981;29;20107;-68
2021/09/20 18:40:55;;;;;;;6.68;3.70;;;11.70;87.30;;;;;;4934949;29;20040;-69
2021/09/20 18:43:21;;;;;;;6.68;3.75;;;11.70;87.20;;;;;;4934543;29;20031;-68
2021/09/20 18:45:47;;;;;;;7.20;4.28;;;11.70;87.30;;;;;;4934152;29;20419;-67
2021/09/20 18:48:13;;;;;;;6.95;3.78;;;11.70;87.30;;;;;;4931777;29;20115;-68
2021/09/20 18:50:39;;;;;;;7.45;4.20;;;11.70;86.80;;;;;;4934265;29;20038;-69
2021/09/20 18:53:06;;;;;;;6.53;3.70;;;11.70;86.80;;;;;;4934323;29;20035;-69
2021/09/20 18:55:32;;;;;;;6.93;3.80;;;11.70;86.70;;;;;;4934575;29;20047;-69
2021/09/20 18:57:57;;;;;;;6.05;3.67;;;11.70;86.50;;;;;;4934346;29;20031;-68
2021/09/20 19:00:29;;;;;;;6.55;3.30;;;11.80;86.30;;;;;;4934721;29;20035;-71
2021/09/20 19:02:55;;;;;;;5.95;3.38;;;11.80;86.30;;;;;;4934487;29;20027;-69
2021/09/20 19:05:21;;;;;;;6.03;3.35;;;11.80;86.30;;;;;;4934528;29;20432;-68
2021/09/20 19:07:47;;;;;;;5.68;3.20;;;11.80;86.30;;;;;;4913952;29;20056;-68
2021/09/20 19:10:14;;;;;;;5.78;3.22;;;11.80;86.30;;;;;;4915574;29;20039;-68
2021/09/20 19:12:40;;;;;;;6.00;3.67;;;11.80;86.10;;;;;;4915448;29;20502;-67
2021/09/20 19:15:08;;;;;;;7.05;3.63;;;11.80;86.00;;;;;;4915108;29;20036;-69
2021/09/20 19:17:38;;;;;;;6.63;3.50;;;11.80;86.00;;;;;;4915363;29;20336;-69
2021/09/20 19:20:07;;;;;;;5.85;3.30;;;11.80;85.80;;;;;;4913840;29;20031;-68
2021/09/20 19:22:33;;;;;;;6.22;3.35;;;11.80;85.90;;;;;;4915362;29;20032;-68
2021/09/20 19:24:58;;;;;;;5.30;3.10;;;11.80;85.80;;;;;;4915322;29;20424;-68
2021/09/20 19:27:24;;;;;;;5.85;3.20;;;11.70;85.80;;;;;;4915190;29;20485;-67
2021/09/20 19:29:49;;;;;;;6.22;3.67;;;11.70;85.80;;;;;;4915201;29;20052;-68
2021/09/20 19:32:17;;;;;;;6.40;3.72;;;11.70;85.80;;;;;;4914685;29;20345;-68
2021/09/20 19:34:43;;;;;;;6.30;3.55;;;11.70;85.90;;;;;;4914292;29;20039;-68
2021/09/20 19:37:09;;;;;;;6.78;3.70;;;11.60;85.80;;;;;;4914795;29;20036;-69
2021/09/20 19:39:35;;;;;;;6.07;3.55;;;11.60;85.80;;;;;;4915140;29;20095;-68
2021/09/20 19:42:00;;;;;;;8.20;3.83;;;11.60;85.80;;;;;;4914740;29;20020;-68
2021/09/20 19:44:27;;;;;;;5.70;3.33;;;11.60;86.00;;;;;;4915103;29;20028;-68
2021/09/20 19:47:07;;;;;;;7.00;3.88;;;11.60;86.10;;;;;;4914899;29;20024;-68
2021/09/20 19:49:33;;;;;;;5.88;3.70;;;11.50;86.30;;;;;;4907572;29;20039;-68
2021/09/20 19:51:59;;;;;;;5.95;3.40;;;11.50;86.40;;;;;;4914712;29;20044;-67
2021/09/20 19:54:25;;;;;;;6.78;3.72;;;11.50;86.60;;;;;;4914604;29;20025;-68
2021/09/20 19:56:52;;;;;;;5.70;3.50;;;11.50;86.60;;;;;;4914523;29;20039;-68
2021/09/20 19:59:17;;;;;;;6.32;3.85;;;11.40;86.60;;;;;;4915255;29;20140;-68
2021/09/20 20:01:43;;;;;;;6.07;3.92;;;11.50;86.80;;;;;;4914925;29;20103;-67
2021/09/20 20:04:10;;;;;;;6.43;3.70;;;11.40;86.80;;;;;;4914650;29;20024;-68